sensor_id;sensor_type;location;lat;lon;timestamp;pressure;altitude;pressure_sealevel;temperature
20289;BMP180;10303;51.960;8.372;2023-07-31T00:00:39;99923.00;;;19.70
20289;BMP180;10303;51.960;8.372;2023-07-31T00:03:04;99916.00;;;19.70
20289;BMP180;10303;51.960;8.372;2023-07-31T00:05:30;99921.00;;;19.70
20289;BMP180;10303;51.960;8.372;2023-07-31T00:07:56;99919.00;;;19.70
20289;BMP180;10303;51.960;8.372;2023-07-31T00:10:22;99932.00;;;19.70
20289;BMP180;10303;51.960;8.372;2023-07-31T00:12:48;99916.00;;;19.70
20289;BMP180;10303;51.960;8.372;2023-07-31T00:15:15;99911.00;;;19.70
20289;BMP180;10303;51.960;8.372;2023-07-31T00:17:41;99909.00;;;19.70
20289;BMP180;10303;51.960;8.372;2023-07-31T00:20:08;99921.00;;;19.70
20289;BMP180;10303;51.960;8.372;2023-07-31T00:22:34;99907.00;;;19.70
20289;BMP180;10303;51.960;8.372;2023-07-31T00:25:00;99914.00;;;19.70
20289;BMP180;10303;51.960;8.372;2023-07-31T00:27:26;99913.00;;;19.70
20289;BMP180;10303;51.960;8.372;2023-07-31T00:29:52;99919.00;;;19.70
20289;BMP180;10303;51.960;8.372;2023-07-31T00:32:18;99916.00;;;19.70
20289;BMP180;10303;51.960;8.372;2023-07-31T00:34:44;99920.00;;;19.70
20289;BMP180;10303;51.960;8.372;2023-07-31T00:37:09;99903.00;;;19.70
20289;BMP180;10303;51.960;8.372;2023-07-31T00:39:36;99912.00;;;19.70
20289;BMP180;10303;51.960;8.372;2023-07-31T00:42:02;99911.00;;;19.70
20289;BMP180;10303;51.960;8.372;2023-07-31T00:44:29;99908.00;;;19.70
20289;BMP180;10303;51.960;8.372;2023-07-31T00:46:56;99908.00;;;19.70
20289;BMP180;10303;51.960;8.372;2023-07-31T00:49:23;99912.00;;;19.70
20289;BMP180;10303;51.960;8.372;2023-07-31T00:51:49;99901.00;;;19.70
20289;BMP180;10303;51.960;8.372;2023-07-31T00:54:15;99901.00;;;19.70
20289;BMP180;10303;51.960;8.372;2023-07-31T00:56:44;99906.00;;;19.70
20289;BMP180;10303;51.960;8.372;2023-07-31T00:59:11;99904.00;;;19.70
20289;BMP180;10303;51.960;8.372;2023-07-31T01:01:38;99909.00;;;19.70
20289;BMP180;10303;51.960;8.372;2023-07-31T01:04:04;99903.00;;;19.60
20289;BMP180;10303;51.960;8.372;2023-07-31T01:06:36;99904.00;;;19.60
20289;BMP180;10303;51.960;8.372;2023-07-31T01:09:27;99907.00;;;19.60
20289;BMP180;10303;51.960;8.372;2023-07-31T01:12:03;99908.00;;;19.50
20289;BMP180;10303;51.960;8.372;2023-07-31T01:14:30;99908.00;;;19.50
20289;BMP180;10303;51.960;8.372;2023-07-31T01:16:56;99912.00;;;19.50
20289;BMP180;10303;51.960;8.372;2023-07-31T01:19:25;99910.00;;;19.40
20289;BMP180;10303;51.960;8.372;2023-07-31T01:28:04;99894.00;;;19.20
20289;BMP180;10303;51.960;8.372;2023-07-31T01:30:41;99895.00;;;19.10
20289;BMP180;10303;51.960;8.372;2023-07-31T01:33:09;99893.00;;;19.10
20289;BMP180;10303;51.960;8.372;2023-07-31T01:35:37;99902.00;;;19.00
20289;BMP180;10303;51.960;8.372;2023-07-31T01:38:05;99891.00;;;19.00
20289;BMP180;10303;51.960;8.372;2023-07-31T01:40:31;99891.00;;;19.00
20289;BMP180;10303;51.960;8.372;2023-07-31T01:42:57;99883.00;;;18.90
20289;BMP180;10303;51.960;8.372;2023-07-31T01:45:23;99875.00;;;18.90
20289;BMP180;10303;51.960;8.372;2023-07-31T01:47:49;99879.00;;;18.90
20289;BMP180;10303;51.960;8.372;2023-07-31T01:50:16;99875.00;;;18.90
20289;BMP180;10303;51.960;8.372;2023-07-31T01:52:42;99865.00;;;18.80
20289;BMP180;10303;51.960;8.372;2023-07-31T01:55:08;99873.00;;;18.80
20289;BMP180;10303;51.960;8.372;2023-07-31T01:57:37;99865.00;;;18.80
20289;BMP180;10303;51.960;8.372;2023-07-31T02:00:04;99865.00;;;18.80
20289;BMP180;10303;51.960;8.372;2023-07-31T02:02:37;99873.00;;;18.80
20289;BMP180;10303;51.960;8.372;2023-07-31T02:05:04;99855.00;;;18.80
20289;BMP180;10303;51.960;8.372;2023-07-31T02:07:32;99854.00;;;18.80
20289;BMP180;10303;51.960;8.372;2023-07-31T02:09:58;99854.00;;;18.80
20289;BMP180;10303;51.960;8.372;2023-07-31T02:12:24;99853.00;;;18.80
20289;BMP180;10303;51.960;8.372;2023-07-31T02:14:50;99845.00;;;18.80
20289;BMP180;10303;51.960;8.372;2023-07-31T02:17:16;99844.00;;;18.80
20289;BMP180;10303;51.960;8.372;2023-07-31T02:19:42;99846.00;;;18.80
20289;BMP180;10303;51.960;8.372;2023-07-31T02:22:08;99834.00;;;18.80
20289;BMP180;10303;51.960;8.372;2023-07-31T02:24:34;99849.00;;;18.80
20289;BMP180;10303;51.960;8.372;2023-07-31T02:27:00;99831.00;;;18.70
20289;BMP180;10303;51.960;8.372;2023-07-31T02:29:26;99836.00;;;18.80
20289;BMP180;10303;51.960;8.372;2023-07-31T02:31:52;99831.00;;;18.70
20289;BMP180;10303;51.960;8.372;2023-07-31T02:34:18;99831.00;;;18.70
20289;BMP180;10303;51.960;8.372;2023-07-31T02:36:46;99831.00;;;18.70
20289;BMP180;10303;51.960;8.372;2023-07-31T02:39:11;99826.00;;;18.70
20289;BMP180;10303;51.960;8.372;2023-07-31T02:41:37;99830.00;;;18.70
20289;BMP180;10303;51.960;8.372;2023-07-31T02:44:04;99824.00;;;18.70
20289;BMP180;10303;51.960;8.372;2023-07-31T02:46:30;99821.00;;;18.70
20289;BMP180;10303;51.960;8.372;2023-07-31T02:48:55;99818.00;;;18.70
20289;BMP180;10303;51.960;8.372;2023-07-31T02:51:21;99817.00;;;18.70
20289;BMP180;10303;51.960;8.372;2023-07-31T02:53:48;99809.00;;;18.70
20289;BMP180;10303;51.960;8.372;2023-07-31T02:56:14;99808.00;;;18.70
20289;BMP180;10303;51.960;8.372;2023-07-31T02:58:40;99823.00;;;18.70
20289;BMP180;10303;51.960;8.372;2023-07-31T03:01:06;99821.00;;;18.70
20289;BMP180;10303;51.960;8.372;2023-07-31T03:03:32;99817.00;;;18.70
20289;BMP180;10303;51.960;8.372;2023-07-31T03:05:58;99818.00;;;18.70
20289;BMP180;10303;51.960;8.372;2023-07-31T03:08:24;99821.00;;;18.80
20289;BMP180;10303;51.960;8.372;2023-07-31T03:10:50;99826.00;;;18.80
20289;BMP180;10303;51.960;8.372;2023-07-31T03:13:16;99818.00;;;18.80
20289;BMP180;10303;51.960;8.372;2023-07-31T03:15:42;99817.00;;;18.80
20289;BMP180;10303;51.960;8.372;2023-07-31T03:18:09;99818.00;;;18.90
20289;BMP180;10303;51.960;8.372;2023-07-31T03:20:36;99829.00;;;18.90
20289;BMP180;10303;51.960;8.372;2023-07-31T03:23:02;99818.00;;;18.90
20289;BMP180;10303;51.960;8.372;2023-07-31T03:25:27;99825.00;;;19.00
20289;BMP180;10303;51.960;8.372;2023-07-31T03:27:53;99800.00;;;19.00
20289;BMP180;10303;51.960;8.372;2023-07-31T03:30:19;99813.00;;;19.00
20289;BMP180;10303;51.960;8.372;2023-07-31T03:32:46;99811.00;;;19.10
20289;BMP180;10303;51.960;8.372;2023-07-31T03:35:12;99804.00;;;19.10
20289;BMP180;10303;51.960;8.372;2023-07-31T03:37:38;99799.00;;;19.10
20289;BMP180;10303;51.960;8.372;2023-07-31T03:40:04;99798.00;;;19.20
20289;BMP180;10303;51.960;8.372;2023-07-31T03:42:30;99820.00;;;19.20
20289;BMP180;10303;51.960;8.372;2023-07-31T03:44:56;99801.00;;;19.20
20289;BMP180;10303;51.960;8.372;2023-07-31T03:47:22;99818.00;;;19.20
20289;BMP180;10303;51.960;8.372;2023-07-31T03:49:49;99805.00;;;19.30
20289;BMP180;10303;51.960;8.372;2023-07-31T03:52:16;99801.00;;;19.30
20289;BMP180;10303;51.960;8.372;2023-07-31T03:54:42;99793.00;;;19.30
20289;BMP180;10303;51.960;8.372;2023-07-31T03:57:10;99803.00;;;19.30
20289;BMP180;10303;51.960;8.372;2023-07-31T03:59:37;99809.00;;;19.40
20289;BMP180;10303;51.960;8.372;2023-07-31T04:02:05;99795.00;;;19.40
20289;BMP180;10303;51.960;8.372;2023-07-31T04:04:31;99802.00;;;19.40
20289;BMP180;10303;51.960;8.372;2023-07-31T04:06:57;99825.00;;;19.40
20289;BMP180;10303;51.960;8.372;2023-07-31T04:09:23;99813.00;;;19.40
20289;BMP180;10303;51.960;8.372;2023-07-31T04:11:49;99806.00;;;19.40
20289;BMP180;10303;51.960;8.372;2023-07-31T04:14:15;99808.00;;;19.40
20289;BMP180;10303;51.960;8.372;2023-07-31T04:16:41;99807.00;;;19.40
20289;BMP180;10303;51.960;8.372;2023-07-31T04:19:06;99812.00;;;19.50
20289;BMP180;10303;51.960;8.372;2023-07-31T04:21:32;99820.00;;;19.50
20289;BMP180;10303;51.960;8.372;2023-07-31T04:23:58;99823.00;;;19.50
20289;BMP180;10303;51.960;8.372;2023-07-31T04:26:24;99797.00;;;19.40
20289;BMP180;10303;51.960;8.372;2023-07-31T04:28:50;99810.00;;;19.40
20289;BMP180;10303;51.960;8.372;2023-07-31T04:31:16;99807.00;;;19.50
20289;BMP180;10303;51.960;8.372;2023-07-31T04:33:42;99819.00;;;19.50
20289;BMP180;10303;51.960;8.372;2023-07-31T04:36:08;99818.00;;;19.50
20289;BMP180;10303;51.960;8.372;2023-07-31T04:38:34;99811.00;;;19.50
20289;BMP180;10303;51.960;8.372;2023-07-31T04:41:00;99806.00;;;19.50
20289;BMP180;10303;51.960;8.372;2023-07-31T04:43:27;99809.00;;;19.40
20289;BMP180;10303;51.960;8.372;2023-07-31T04:45:53;99803.00;;;19.50
20289;BMP180;10303;51.960;8.372;2023-07-31T04:48:19;99794.00;;;19.50
20289;BMP180;10303;51.960;8.372;2023-07-31T04:50:45;99804.00;;;19.40
20289;BMP180;10303;51.960;8.372;2023-07-31T04:53:11;99808.00;;;19.40
20289;BMP180;10303;51.960;8.372;2023-07-31T04:55:37;99805.00;;;19.50
20289;BMP180;10303;51.960;8.372;2023-07-31T04:58:04;99799.00;;;19.40
20289;BMP180;10303;51.960;8.372;2023-07-31T05:00:29;99806.00;;;19.50
20289;BMP180;10303;51.960;8.372;2023-07-31T05:02:55;99817.00;;;19.50
20289;BMP180;10303;51.960;8.372;2023-07-31T05:05:21;99802.00;;;19.50
20289;BMP180;10303;51.960;8.372;2023-07-31T05:07:47;99807.00;;;19.50
20289;BMP180;10303;51.960;8.372;2023-07-31T05:10:14;99801.00;;;19.50
20289;BMP180;10303;51.960;8.372;2023-07-31T05:12:40;99803.00;;;19.50
20289;BMP180;10303;51.960;8.372;2023-07-31T05:15:06;99808.00;;;19.50
20289;BMP180;10303;51.960;8.372;2023-07-31T05:17:32;99803.00;;;19.50
20289;BMP180;10303;51.960;8.372;2023-07-31T05:19:58;99792.00;;;19.50
20289;BMP180;10303;51.960;8.372;2023-07-31T05:22:24;99802.00;;;19.60
20289;BMP180;10303;51.960;8.372;2023-07-31T05:24:50;99797.00;;;19.60
20289;BMP180;10303;51.960;8.372;2023-07-31T05:27:16;99795.00;;;19.60
20289;BMP180;10303;51.960;8.372;2023-07-31T05:29:44;99800.00;;;19.60
20289;BMP180;10303;51.960;8.372;2023-07-31T05:32:11;99805.00;;;19.60
20289;BMP180;10303;51.960;8.372;2023-07-31T05:34:37;99805.00;;;19.60
20289;BMP180;10303;51.960;8.372;2023-07-31T05:37:04;99801.00;;;19.60
20289;BMP180;10303;51.960;8.372;2023-07-31T05:39:31;99801.00;;;19.60
20289;BMP180;10303;51.960;8.372;2023-07-31T05:41:57;99794.00;;;19.60
20289;BMP180;10303;51.960;8.372;2023-07-31T05:44:23;99799.00;;;19.70
20289;BMP180;10303;51.960;8.372;2023-07-31T05:46:49;99797.00;;;19.70
20289;BMP180;10303;51.960;8.372;2023-07-31T05:49:15;99798.00;;;19.70
20289;BMP180;10303;51.960;8.372;2023-07-31T05:51:41;99796.00;;;19.70
20289;BMP180;10303;51.960;8.372;2023-07-31T05:54:07;99793.00;;;19.70
20289;BMP180;10303;51.960;8.372;2023-07-31T05:56:33;99788.00;;;19.70
20289;BMP180;10303;51.960;8.372;2023-07-31T05:58:59;99793.00;;;19.70
20289;BMP180;10303;51.960;8.372;2023-07-31T06:01:25;99788.00;;;19.70
20289;BMP180;10303;51.960;8.372;2023-07-31T06:03:51;99792.00;;;19.80
20289;BMP180;10303;51.960;8.372;2023-07-31T06:06:17;99787.00;;;19.80
20289;BMP180;10303;51.960;8.372;2023-07-31T06:08:43;99788.00;;;19.80
20289;BMP180;10303;51.960;8.372;2023-07-31T06:11:09;99787.00;;;19.80
20289;BMP180;10303;51.960;8.372;2023-07-31T06:13:35;99786.00;;;19.80
20289;BMP180;10303;51.960;8.372;2023-07-31T06:16:01;99786.00;;;19.90
20289;BMP180;10303;51.960;8.372;2023-07-31T06:18:34;99781.00;;;19.80
20289;BMP180;10303;51.960;8.372;2023-07-31T06:21:00;99775.00;;;19.90
20289;BMP180;10303;51.960;8.372;2023-07-31T06:23:26;99788.00;;;19.90
20289;BMP180;10303;51.960;8.372;2023-07-31T06:25:52;99786.00;;;20.00
20289;BMP180;10303;51.960;8.372;2023-07-31T06:28:18;99777.00;;;20.00
20289;BMP180;10303;51.960;8.372;2023-07-31T06:30:44;99784.00;;;20.00
20289;BMP180;10303;51.960;8.372;2023-07-31T06:33:10;99776.00;;;20.00
20289;BMP180;10303;51.960;8.372;2023-07-31T06:35:36;99772.00;;;20.00
20289;BMP180;10303;51.960;8.372;2023-07-31T06:38:02;99770.00;;;20.00
20289;BMP180;10303;51.960;8.372;2023-07-31T06:40:29;99760.00;;;20.00
20289;BMP180;10303;51.960;8.372;2023-07-31T06:42:55;99753.00;;;20.10
20289;BMP180;10303;51.960;8.372;2023-07-31T06:45:21;99772.00;;;20.10
20289;BMP180;10303;51.960;8.372;2023-07-31T06:47:47;99769.00;;;20.10
20289;BMP180;10303;51.960;8.372;2023-07-31T06:50:13;99764.00;;;20.10
20289;BMP180;10303;51.960;8.372;2023-07-31T06:52:39;99767.00;;;20.10
20289;BMP180;10303;51.960;8.372;2023-07-31T06:55:25;99764.00;;;20.10
20289;BMP180;10303;51.960;8.372;2023-07-31T06:57:53;99763.00;;;20.20
20289;BMP180;10303;51.960;8.372;2023-07-31T07:00:21;99759.00;;;20.20
20289;BMP180;10303;51.960;8.372;2023-07-31T07:02:48;99762.00;;;20.20
20289;BMP180;10303;51.960;8.372;2023-07-31T07:05:15;99759.00;;;20.20
20289;BMP180;10303;51.960;8.372;2023-07-31T07:07:43;99759.00;;;20.20
20289;BMP180;10303;51.960;8.372;2023-07-31T07:10:10;99755.00;;;20.20
20289;BMP180;10303;51.960;8.372;2023-07-31T07:12:36;99755.00;;;20.20
20289;BMP180;10303;51.960;8.372;2023-07-31T07:15:02;99760.00;;;20.30
20289;BMP180;10303;51.960;8.372;2023-07-31T07:17:30;99771.00;;;20.30
20289;BMP180;10303;51.960;8.372;2023-07-31T07:20:00;99773.00;;;20.30
20289;BMP180;10303;51.960;8.372;2023-07-31T07:22:27;99766.00;;;20.30
20289;BMP180;10303;51.960;8.372;2023-07-31T07:24:53;99768.00;;;20.30
20289;BMP180;10303;51.960;8.372;2023-07-31T07:27:19;99775.00;;;20.40
20289;BMP180;10303;51.960;8.372;2023-07-31T07:29:46;99786.00;;;20.40
20289;BMP180;10303;51.960;8.372;2023-07-31T07:32:13;99781.00;;;20.30
20289;BMP180;10303;51.960;8.372;2023-07-31T07:34:39;99772.00;;;20.30
20289;BMP180;10303;51.960;8.372;2023-07-31T07:37:05;99782.00;;;20.30
20289;BMP180;10303;51.960;8.372;2023-07-31T07:39:31;99775.00;;;20.30
20289;BMP180;10303;51.960;8.372;2023-07-31T07:41:57;99761.00;;;20.30
20289;BMP180;10303;51.960;8.372;2023-07-31T07:44:23;99753.00;;;20.30
20289;BMP180;10303;51.960;8.372;2023-07-31T07:46:49;99765.00;;;20.30
20289;BMP180;10303;51.960;8.372;2023-07-31T07:49:15;99763.00;;;20.30
20289;BMP180;10303;51.960;8.372;2023-07-31T07:51:41;99750.00;;;20.30
20289;BMP180;10303;51.960;8.372;2023-07-31T07:54:07;99752.00;;;20.30
20289;BMP180;10303;51.960;8.372;2023-07-31T07:56:33;99747.00;;;20.30
20289;BMP180;10303;51.960;8.372;2023-07-31T07:59:02;99744.00;;;20.30
20289;BMP180;10303;51.960;8.372;2023-07-31T08:01:28;99753.00;;;20.30
20289;BMP180;10303;51.960;8.372;2023-07-31T08:03:53;99752.00;;;20.30
20289;BMP180;10303;51.960;8.372;2023-07-31T08:06:20;99750.00;;;20.30
20289;BMP180;10303;51.960;8.372;2023-07-31T08:08:45;99744.00;;;20.30
20289;BMP180;10303;51.960;8.372;2023-07-31T08:11:11;99737.00;;;20.30
20289;BMP180;10303;51.960;8.372;2023-07-31T08:13:37;99741.00;;;20.40
20289;BMP180;10303;51.960;8.372;2023-07-31T08:16:04;99729.00;;;20.40
20289;BMP180;10303;51.960;8.372;2023-07-31T08:18:31;99720.00;;;20.40
20289;BMP180;10303;51.960;8.372;2023-07-31T08:20:58;99721.00;;;20.40
20289;BMP180;10303;51.960;8.372;2023-07-31T08:23:24;99726.00;;;20.50
20289;BMP180;10303;51.960;8.372;2023-07-31T08:25:50;99703.00;;;20.50
20289;BMP180;10303;51.960;8.372;2023-07-31T08:28:16;99706.00;;;20.50
20289;BMP180;10303;51.960;8.372;2023-07-31T08:30:42;99694.00;;;20.50
20289;BMP180;10303;51.960;8.372;2023-07-31T08:33:08;99691.00;;;20.50
20289;BMP180;10303;51.960;8.372;2023-07-31T08:35:34;99710.00;;;20.50
20289;BMP180;10303;51.960;8.372;2023-07-31T08:38:00;99698.00;;;20.50
20289;BMP180;10303;51.960;8.372;2023-07-31T08:40:26;99708.00;;;20.60
20289;BMP180;10303;51.960;8.372;2023-07-31T08:42:55;99704.00;;;20.60
20289;BMP180;10303;51.960;8.372;2023-07-31T08:45:29;99700.00;;;20.60
20289;BMP180;10303;51.960;8.372;2023-07-31T08:47:56;99691.00;;;20.60
20289;BMP180;10303;51.960;8.372;2023-07-31T08:50:23;99695.00;;;20.60
20289;BMP180;10303;51.960;8.372;2023-07-31T08:52:51;99700.00;;;20.60
20289;BMP180;10303;51.960;8.372;2023-07-31T08:55:18;99697.00;;;20.60
20289;BMP180;10303;51.960;8.372;2023-07-31T08:57:52;99683.00;;;20.60
20289;BMP180;10303;51.960;8.372;2023-07-31T09:00:22;99697.00;;;20.60
20289;BMP180;10303;51.960;8.372;2023-07-31T09:03:08;99698.00;;;20.60
20289;BMP180;10303;51.960;8.372;2023-07-31T09:05:36;99697.00;;;20.70
20289;BMP180;10303;51.960;8.372;2023-07-31T09:08:07;99697.00;;;20.60
20289;BMP180;10303;51.960;8.372;2023-07-31T09:10:35;99687.00;;;20.70
20289;BMP180;10303;51.960;8.372;2023-07-31T09:13:03;99685.00;;;20.70
20289;BMP180;10303;51.960;8.372;2023-07-31T09:15:30;99690.00;;;20.70
20289;BMP180;10303;51.960;8.372;2023-07-31T09:18:03;99690.00;;;20.70
20289;BMP180;10303;51.960;8.372;2023-07-31T09:20:31;99691.00;;;20.70
20289;BMP180;10303;51.960;8.372;2023-07-31T09:23:10;99690.00;;;20.70
20289;BMP180;10303;51.960;8.372;2023-07-31T09:25:37;99693.00;;;20.70
20289;BMP180;10303;51.960;8.372;2023-07-31T09:28:07;99682.00;;;20.70
20289;BMP180;10303;51.960;8.372;2023-07-31T09:30:49;99696.00;;;20.70
20289;BMP180;10303;51.960;8.372;2023-07-31T09:33:16;99682.00;;;20.80
20289;BMP180;10303;51.960;8.372;2023-07-31T09:35:42;99674.00;;;20.80
20289;BMP180;10303;51.960;8.372;2023-07-31T09:38:14;99679.00;;;20.80
20289;BMP180;10303;51.960;8.372;2023-07-31T09:40:43;99673.00;;;20.80
20289;BMP180;10303;51.960;8.372;2023-07-31T09:43:12;99665.00;;;20.80
20289;BMP180;10303;51.960;8.372;2023-07-31T09:45:41;99671.00;;;20.80
20289;BMP180;10303;51.960;8.372;2023-07-31T09:48:13;99669.00;;;20.90
20289;BMP180;10303;51.960;8.372;2023-07-31T09:50:46;99686.00;;;20.90
20289;BMP180;10303;51.960;8.372;2023-07-31T09:53:12;99682.00;;;20.90
20289;BMP180;10303;51.960;8.372;2023-07-31T09:55:41;99667.00;;;20.80
20289;BMP180;10303;51.960;8.372;2023-07-31T09:58:12;99667.00;;;20.90
20289;BMP180;10303;51.960;8.372;2023-07-31T10:00:39;99662.00;;;20.90
20289;BMP180;10303;51.960;8.372;2023-07-31T10:03:08;99664.00;;;20.90
20289;BMP180;10303;51.960;8.372;2023-07-31T10:05:53;99670.00;;;20.90
20289;BMP180;10303;51.960;8.372;2023-07-31T10:08:28;99655.00;;;20.90
20289;BMP180;10303;51.960;8.372;2023-07-31T10:10:59;99656.00;;;20.90
20289;BMP180;10303;51.960;8.372;2023-07-31T10:13:28;99655.00;;;20.90
20289;BMP180;10303;51.960;8.372;2023-07-31T10:15:59;99662.00;;;20.90
20289;BMP180;10303;51.960;8.372;2023-07-31T10:18:29;99663.00;;;21.00
20289;BMP180;10303;51.960;8.372;2023-07-31T10:20:56;99662.00;;;21.00
20289;BMP180;10303;51.960;8.372;2023-07-31T10:23:24;99665.00;;;21.00
20289;BMP180;10303;51.960;8.372;2023-07-31T10:25:53;99664.00;;;21.00
20289;BMP180;10303;51.960;8.372;2023-07-31T10:28:21;99665.00;;;21.00
20289;BMP180;10303;51.960;8.372;2023-07-31T10:30:48;99656.00;;;21.00
20289;BMP180;10303;51.960;8.372;2023-07-31T10:33:15;99666.00;;;21.00
20289;BMP180;10303;51.960;8.372;2023-07-31T10:35:43;99662.00;;;21.00
20289;BMP180;10303;51.960;8.372;2023-07-31T10:38:11;99661.00;;;21.00
20289;BMP180;10303;51.960;8.372;2023-07-31T10:40:38;99650.00;;;21.00
20289;BMP180;10303;51.960;8.372;2023-07-31T10:43:05;99650.00;;;21.00
20289;BMP180;10303;51.960;8.372;2023-07-31T10:45:41;99654.00;;;21.00
20289;BMP180;10303;51.960;8.372;2023-07-31T10:48:16;99655.00;;;20.90
20289;BMP180;10303;51.960;8.372;2023-07-31T10:50:50;99661.00;;;20.90
20289;BMP180;10303;51.960;8.372;2023-07-31T10:53:32;99650.00;;;20.90
20289;BMP180;10303;51.960;8.372;2023-07-31T10:56:09;99651.00;;;21.00
20289;BMP180;10303;51.960;8.372;2023-07-31T10:58:37;99647.00;;;21.00
20289;BMP180;10303;51.960;8.372;2023-07-31T11:01:06;99645.00;;;21.00
20289;BMP180;10303;51.960;8.372;2023-07-31T11:03:50;99648.00;;;21.00
20289;BMP180;10303;51.960;8.372;2023-07-31T11:06:18;99642.00;;;21.10
20289;BMP180;10303;51.960;8.372;2023-07-31T11:08:47;99647.00;;;21.10
20289;BMP180;10303;51.960;8.372;2023-07-31T11:11:17;99645.00;;;21.10
20289;BMP180;10303;51.960;8.372;2023-07-31T11:13:47;99660.00;;;21.10
20289;BMP180;10303;51.960;8.372;2023-07-31T11:16:17;99636.00;;;21.10
20289;BMP180;10303;51.960;8.372;2023-07-31T11:18:45;99645.00;;;21.10
20289;BMP180;10303;51.960;8.372;2023-07-31T11:21:21;99636.00;;;21.00
20289;BMP180;10303;51.960;8.372;2023-07-31T11:23:49;99643.00;;;21.10
20289;BMP180;10303;51.960;8.372;2023-07-31T11:26:17;99631.00;;;21.10
20289;BMP180;10303;51.960;8.372;2023-07-31T11:28:43;99642.00;;;21.10
20289;BMP180;10303;51.960;8.372;2023-07-31T11:31:12;99638.00;;;21.10
20289;BMP180;10303;51.960;8.372;2023-07-31T11:33:37;99634.00;;;21.10
20289;BMP180;10303;51.960;8.372;2023-07-31T11:36:04;99628.00;;;21.10
20289;BMP180;10303;51.960;8.372;2023-07-31T11:38:34;99633.00;;;21.10
20289;BMP180;10303;51.960;8.372;2023-07-31T11:41:03;99619.00;;;21.10
20289;BMP180;10303;51.960;8.372;2023-07-31T11:43:31;99620.00;;;21.10
20289;BMP180;10303;51.960;8.372;2023-07-31T11:45:59;99625.00;;;21.20
20289;BMP180;10303;51.960;8.372;2023-07-31T11:48:31;99620.00;;;21.20
20289;BMP180;10303;51.960;8.372;2023-07-31T11:51:02;99620.00;;;21.20
20289;BMP180;10303;51.960;8.372;2023-07-31T11:53:55;99620.00;;;21.20
20289;BMP180;10303;51.960;8.372;2023-07-31T11:56:23;99625.00;;;21.30
20289;BMP180;10303;51.960;8.372;2023-07-31T11:59:01;99617.00;;;21.30
20289;BMP180;10303;51.960;8.372;2023-07-31T12:01:29;99625.00;;;21.40
20289;BMP180;10303;51.960;8.372;2023-07-31T12:03:57;99619.00;;;21.40
20289;BMP180;10303;51.960;8.372;2023-07-31T12:06:36;99619.00;;;21.40
20289;BMP180;10303;51.960;8.372;2023-07-31T12:09:05;99616.00;;;21.40
20289;BMP180;10303;51.960;8.372;2023-07-31T12:11:45;99608.00;;;21.40
20289;BMP180;10303;51.960;8.372;2023-07-31T12:14:25;99614.00;;;21.40
20289;BMP180;10303;51.960;8.372;2023-07-31T12:17:04;99611.00;;;21.40
20289;BMP180;10303;51.960;8.372;2023-07-31T12:19:31;99615.00;;;21.40
20289;BMP180;10303;51.960;8.372;2023-07-31T12:21:59;99609.00;;;21.40
20289;BMP180;10303;51.960;8.372;2023-07-31T12:24:28;99604.00;;;21.40
20289;BMP180;10303;51.960;8.372;2023-07-31T12:26:54;99608.00;;;21.50
20289;BMP180;10303;51.960;8.372;2023-07-31T12:29:21;99610.00;;;21.50
20289;BMP180;10303;51.960;8.372;2023-07-31T12:31:46;99616.00;;;21.50
20289;BMP180;10303;51.960;8.372;2023-07-31T12:34:18;99609.00;;;21.40
20289;BMP180;10303;51.960;8.372;2023-07-31T12:36:44;99612.00;;;21.50
20289;BMP180;10303;51.960;8.372;2023-07-31T12:39:12;99611.00;;;21.50
20289;BMP180;10303;51.960;8.372;2023-07-31T12:41:38;99614.00;;;21.50
20289;BMP180;10303;51.960;8.372;2023-07-31T12:44:05;99624.00;;;21.50
20289;BMP180;10303;51.960;8.372;2023-07-31T12:46:31;99614.00;;;21.40
20289;BMP180;10303;51.960;8.372;2023-07-31T12:48:57;99606.00;;;21.40
20289;BMP180;10303;51.960;8.372;2023-07-31T12:51:24;99607.00;;;21.40
20289;BMP180;10303;51.960;8.372;2023-07-31T12:53:50;99615.00;;;21.40
20289;BMP180;10303;51.960;8.372;2023-07-31T12:56:16;99603.00;;;21.40
20289;BMP180;10303;51.960;8.372;2023-07-31T12:58:43;99599.00;;;21.40
20289;BMP180;10303;51.960;8.372;2023-07-31T13:01:09;99597.00;;;21.50
20289;BMP180;10303;51.960;8.372;2023-07-31T13:03:36;99588.00;;;21.50
20289;BMP180;10303;51.960;8.372;2023-07-31T13:06:03;99580.00;;;21.60
20289;BMP180;10303;51.960;8.372;2023-07-31T13:08:29;99582.00;;;21.60
20289;BMP180;10303;51.960;8.372;2023-07-31T13:10:55;99595.00;;;21.70
20289;BMP180;10303;51.960;8.372;2023-07-31T13:13:21;99594.00;;;21.80
20289;BMP180;10303;51.960;8.372;2023-07-31T13:15:48;99588.00;;;22.00
20289;BMP180;10303;51.960;8.372;2023-07-31T13:18:14;99587.00;;;22.10
20289;BMP180;10303;51.960;8.372;2023-07-31T13:20:40;99586.00;;;22.30
20289;BMP180;10303;51.960;8.372;2023-07-31T13:23:06;99574.00;;;22.40
20289;BMP180;10303;51.960;8.372;2023-07-31T13:25:32;99572.00;;;22.50
20289;BMP180;10303;51.960;8.372;2023-07-31T13:27:58;99568.00;;;22.60
20289;BMP180;10303;51.960;8.372;2023-07-31T13:30:24;99562.00;;;22.70
20289;BMP180;10303;51.960;8.372;2023-07-31T13:32:50;99555.00;;;22.80
20289;BMP180;10303;51.960;8.372;2023-07-31T13:35:17;99567.00;;;22.80
20289;BMP180;10303;51.960;8.372;2023-07-31T13:37:43;99549.00;;;22.90
20289;BMP180;10303;51.960;8.372;2023-07-31T13:40:10;99553.00;;;22.90
20289;BMP180;10303;51.960;8.372;2023-07-31T13:42:36;99548.00;;;23.00
20289;BMP180;10303;51.960;8.372;2023-07-31T13:45:03;99548.00;;;23.10
20289;BMP180;10303;51.960;8.372;2023-07-31T13:47:29;99549.00;;;23.10
20289;BMP180;10303;51.960;8.372;2023-07-31T13:49:56;99544.00;;;23.10
20289;BMP180;10303;51.960;8.372;2023-07-31T13:52:22;99550.00;;;23.10
20289;BMP180;10303;51.960;8.372;2023-07-31T13:54:49;99556.00;;;23.10
20289;BMP180;10303;51.960;8.372;2023-07-31T13:57:15;99540.00;;;23.10
20289;BMP180;10303;51.960;8.372;2023-07-31T13:59:41;99537.00;;;23.10
20289;BMP180;10303;51.960;8.372;2023-07-31T14:02:07;99535.00;;;23.00
20289;BMP180;10303;51.960;8.372;2023-07-31T14:04:34;99534.00;;;22.90
20289;BMP180;10303;51.960;8.372;2023-07-31T14:07:00;99534.00;;;22.90
20289;BMP180;10303;51.960;8.372;2023-07-31T14:09:27;99543.00;;;22.90
20289;BMP180;10303;51.960;8.372;2023-07-31T14:11:54;99534.00;;;22.80
20289;BMP180;10303;51.960;8.372;2023-07-31T14:14:20;99536.00;;;22.80
20289;BMP180;10303;51.960;8.372;2023-07-31T14:16:46;99534.00;;;22.80